createdAt,value
2017-06-05T00:00:24.541Z,0
2017-06-05T00:01:25.516Z,0
2017-06-05T00:02:26.199Z,0
2017-06-05T00:03:26.891Z,0
2017-06-05T00:04:27.607Z,0
2017-06-05T00:05:28.433Z,0
2017-06-05T00:06:29.112Z,0
2017-06-05T00:07:30.116Z,0
2017-06-05T00:08:30.812Z,0
2017-06-05T00:09:31.496Z,0
2017-06-05T00:10:32.266Z,0
2017-06-05T00:11:32.952Z,0
2017-06-05T00:12:33.643Z,0
2017-06-05T00:13:34.617Z,0
2017-06-05T00:14:35.295Z,0
2017-06-05T00:15:36.070Z,0
2017-06-05T00:16:36.748Z,0
2017-06-05T00:17:37.460Z,0
2017-06-05T00:18:38.126Z,0
2017-06-05T00:19:39.181Z,0
2017-06-05T00:20:39.904Z,0
2017-06-05T00:21:40.586Z,0
2017-06-05T00:22:41.480Z,0
2017-06-05T00:23:42.208Z,0
2017-06-05T00:24:42.914Z,0
2017-06-05T00:25:43.885Z,0
2017-06-05T00:26:44.568Z,0
2017-06-05T00:27:45.306Z,0
2017-06-05T00:28:46.029Z,0
2017-06-05T00:29:46.705Z,0
2017-06-05T00:30:47.386Z,0
2017-06-05T00:31:48.061Z,0
2017-06-05T00:32:49.287Z,0
2017-06-05T00:33:50.013Z,0
2017-06-05T00:34:50.689Z,0
2017-06-05T00:35:51.376Z,0
2017-06-05T00:36:52.092Z,0
2017-06-05T00:37:52.915Z,0
2017-06-05T00:38:53.897Z,0
2017-06-05T00:39:54.576Z,0
2017-06-05T00:40:55.239Z,0
2017-06-05T00:41:55.974Z,0
2017-06-05T00:42:56.711Z,0
2017-06-05T00:43:57.379Z,0
2017-06-05T00:44:58.355Z,0
2017-06-05T00:45:59.041Z,0
2017-06-05T00:46:59.713Z,0
2017-06-05T00:48:00.399Z,0
2017-06-05T00:49:01.074Z,0
2017-06-05T00:50:01.751Z,0
2017-06-05T00:51:02.893Z,0
2017-06-05T00:52:03.574Z,0
2017-06-05T00:53:04.245Z,0
2017-06-05T00:54:04.928Z,0
2017-06-05T00:55:05.648Z,0
2017-06-05T00:56:06.374Z,0
2017-06-05T00:57:07.354Z,0
2017-06-05T00:58:08.036Z,0
2017-06-05T00:59:08.705Z,0
2017-06-05T01:00:09.379Z,0
2017-06-05T01:01:10.362Z,0
2017-06-05T01:02:11.034Z,0
2017-06-05T01:03:11.721Z,0
2017-06-05T01:04:12.696Z,0
2017-06-05T01:05:13.416Z,0
2017-06-05T01:06:14.343Z,0
2017-06-05T01:07:15.017Z,0
2017-06-05T01:08:15.696Z,0
2017-06-05T01:09:16.374Z,0
2017-06-05T01:10:17.352Z,0
2017-06-05T01:11:18.108Z,0
2017-06-05T01:12:18.997Z,0
2017-06-05T01:13:19.674Z,0
2017-06-05T01:14:20.356Z,0
2017-06-05T01:15:21.031Z,0
2017-06-05T01:16:22.011Z,0
2017-06-05T01:17:22.685Z,0
2017-06-05T01:18:23.361Z,0
2017-06-05T01:19:24.145Z,0
2017-06-05T01:20:24.878Z,0
2017-06-05T01:21:25.590Z,0
2017-06-05T01:22:26.570Z,0
2017-06-05T01:23:27.247Z,0
2017-06-05T01:24:27.923Z,0
2017-06-05T01:25:28.753Z,0
2017-06-05T01:26:29.428Z,0
2017-06-05T01:27:30.105Z,0
2017-06-05T01:28:31.083Z,0
2017-06-05T01:29:31.759Z,0
2017-06-05T01:30:32.439Z,0
2017-06-05T01:31:33.116Z,0
2017-06-05T01:32:33.793Z,0
2017-06-05T01:33:34.470Z,0
2017-06-05T01:34:35.154Z,0
2017-06-05T01:35:36.127Z,0
2017-06-05T01:36:36.799Z,0
2017-06-05T01:37:38.274Z,0
2017-06-05T01:38:38.914Z,0
2017-06-05T01:39:39.619Z,0
2017-06-05T01:40:40.385Z,0
2017-06-05T01:41:41.667Z,0
2017-06-05T01:42:42.342Z,0
2017-06-05T01:43:43.025Z,0
2017-06-05T01:44:43.702Z,0
2017-06-05T01:45:44.381Z,0
2017-06-05T01:46:45.159Z,0
2017-06-05T01:47:45.882Z,0
2017-06-05T01:48:46.860Z,0
2017-06-05T01:49:47.583Z,0
2017-06-05T01:50:48.462Z,0
2017-06-05T01:51:49.245Z,0
2017-06-05T01:52:49.907Z,0
2017-06-05T01:53:50.592Z,0
2017-06-05T01:54:51.559Z,0
2017-06-05T01:55:52.244Z,0
2017-06-05T01:56:53.119Z,0
2017-06-05T01:57:53.795Z,0
2017-06-05T01:58:54.471Z,0
2017-06-05T01:59:55.150Z,0
2017-06-05T02:00:56.176Z,0
2017-06-05T02:01:56.939Z,0
2017-06-05T02:02:57.635Z,0
2017-06-05T02:03:58.363Z,0
2017-06-05T02:04:59.040Z,0
2017-06-05T02:05:59.721Z,0
2017-06-05T02:07:00.761Z,0
2017-06-05T02:08:01.469Z,0
2017-06-05T02:09:02.147Z,0
2017-06-05T02:10:02.863Z,0
2017-06-05T02:11:03.540Z,0
2017-06-05T02:12:04.325Z,0
2017-06-05T02:13:05.449Z,0
2017-06-05T02:14:06.168Z,0
2017-06-05T02:15:06.844Z,0
2017-06-05T02:16:07.525Z,0
2017-06-05T02:17:08.201Z,0
2017-06-05T02:18:08.981Z,0
2017-06-05T02:19:09.657Z,0
2017-06-05T02:20:10.630Z,0
2017-06-05T02:21:11.310Z,0
2017-06-05T02:22:11.991Z,0
2017-06-05T02:23:12.712Z,0
2017-06-05T02:24:13.389Z,0
2017-06-05T02:25:14.068Z,0
2017-06-05T02:26:15.044Z,0
2017-06-05T02:27:15.766Z,0
2017-06-05T02:28:16.496Z,0
2017-06-05T02:29:17.224Z,0
2017-06-05T02:30:17.905Z,0
2017-06-05T02:31:18.587Z,0
2017-06-05T02:32:19.570Z,0
2017-06-05T02:33:20.400Z,0
2017-06-05T02:34:21.123Z,0
2017-06-05T02:35:21.800Z,0
2017-06-05T02:36:22.484Z,0
2017-06-05T02:37:23.156Z,0
2017-06-05T02:38:24.326Z,0
2017-06-05T02:39:25.301Z,0
2017-06-05T02:40:26.024Z,0
2017-06-05T02:41:26.703Z,0
2017-06-05T02:42:27.383Z,0
2017-06-05T02:43:28.304Z,0
2017-06-05T02:44:29.279Z,0
2017-06-05T02:45:29.954Z,0
2017-06-05T02:46:30.631Z,0
2017-06-05T02:47:31.305Z,0
2017-06-05T02:48:32.135Z,0
2017-06-05T02:49:32.811Z,0
2017-06-05T02:50:33.798Z,0
2017-06-05T02:51:34.510Z,0
2017-06-05T02:52:35.233Z,0
2017-06-05T02:53:35.958Z,0
2017-06-05T02:54:36.635Z,0
2017-06-05T02:55:37.360Z,0
2017-06-05T02:56:38.336Z,0
2017-06-05T02:57:39.014Z,0
2017-06-05T02:58:39.689Z,0
2017-06-05T02:59:40.368Z,0
2017-06-05T03:00:41.194Z,0
2017-06-05T03:01:41.872Z,0
2017-06-05T03:02:42.600Z,0
2017-06-05T03:03:43.579Z,0
2017-06-05T03:04:44.303Z,0
2017-06-05T03:05:45.026Z,0
2017-06-05T03:06:45.699Z,0
2017-06-05T03:07:46.391Z,0
2017-06-05T03:08:47.053Z,0
2017-06-05T03:09:48.034Z,0
2017-06-05T03:10:48.917Z,0
2017-06-05T03:11:49.591Z,0
2017-06-05T03:12:50.269Z,0
2017-06-05T03:13:50.956Z,0
2017-06-05T03:14:51.630Z,0
2017-06-05T03:15:52.711Z,0
2017-06-05T03:16:53.387Z,0
2017-06-05T03:17:54.074Z,0
2017-06-05T03:18:54.739Z,0
2017-06-05T03:19:55.420Z,0
2017-06-05T03:20:56.200Z,0
2017-06-05T03:21:57.186Z,0
2017-06-05T03:22:57.856Z,0
2017-06-05T03:23:58.531Z,0
2017-06-05T03:24:59.201Z,0
2017-06-05T03:25:59.935Z,0
2017-06-05T03:27:00.607Z,0
2017-06-05T03:28:01.589Z,0
2017-06-05T03:29:02.277Z,0
2017-06-05T03:30:02.935Z,0
2017-06-05T03:31:03.752Z,0
2017-06-05T03:32:04.428Z,0
2017-06-05T03:33:05.101Z,0
2017-06-05T03:34:05.797Z,0
2017-06-05T03:35:06.756Z,0
2017-06-05T03:36:07.492Z,4
2017-06-05T03:37:08.162Z,4
2017-06-05T03:38:08.839Z,0
2017-06-05T03:39:09.511Z,0
2017-06-05T03:40:10.191Z,0
2017-06-05T03:41:11.170Z,0
2017-06-05T03:42:11.893Z,4
2017-06-05T03:43:12.564Z,4
2017-06-05T03:44:13.240Z,4
2017-06-05T03:45:13.917Z,0
2017-06-05T03:46:14.592Z,0
2017-06-05T03:47:15.668Z,4
2017-06-05T03:48:16.341Z,4
2017-06-05T03:49:17.014Z,0
2017-06-05T03:50:17.696Z,0
2017-06-05T03:51:18.366Z,4
2017-06-05T03:52:19.283Z,4
2017-06-05T03:53:20.258Z,4
2017-06-05T03:54:20.934Z,4
2017-06-05T03:55:21.608Z,4
2017-06-05T03:56:22.284Z,4
2017-06-05T03:57:23.011Z,4
2017-06-05T03:58:23.683Z,4
2017-06-05T03:59:24.668Z,8
2017-06-05T04:00:25.325Z,4
2017-06-05T04:01:26.012Z,4
2017-06-05T04:02:26.803Z,4
2017-06-05T04:03:27.478Z,4
2017-06-05T04:04:28.154Z,4
2017-06-05T04:05:28.828Z,4
2017-06-05T04:06:29.824Z,4
2017-06-05T04:07:30.548Z,4
2017-06-05T04:08:31.214Z,4
2017-06-05T04:09:31.940Z,8
2017-06-05T04:10:32.608Z,8
2017-06-05T04:11:33.293Z,4
2017-06-05T04:12:34.363Z,4
2017-06-05T04:13:35.046Z,8
2017-06-05T04:14:35.721Z,4
2017-06-05T04:15:36.403Z,4
2017-06-05T04:16:37.154Z,4
2017-06-05T04:17:37.921Z,4
2017-06-05T04:18:38.894Z,4
2017-06-05T04:19:39.667Z,4
2017-06-05T04:20:40.344Z,4
2017-06-05T04:21:41.023Z,4
2017-06-05T04:22:41.692Z,4
2017-06-05T04:23:42.369Z,4
2017-06-05T04:24:43.395Z,8
2017-06-05T04:25:44.115Z,8
2017-06-05T04:26:44.834Z,8
2017-06-05T04:27:45.510Z,4
2017-06-05T04:28:46.181Z,4
2017-06-05T04:29:46.957Z,8
2017-06-05T04:30:47.937Z,8
2017-06-05T04:31:48.610Z,8
2017-06-05T04:32:49.297Z,8
2017-06-05T04:33:49.954Z,8
2017-06-05T04:34:50.782Z,8
2017-06-05T04:35:51.460Z,8
2017-06-05T04:36:52.132Z,8
2017-06-05T04:37:53.111Z,8
2017-06-05T04:38:53.782Z,8
2017-06-05T04:39:54.658Z,12
2017-06-05T04:40:55.333Z,8
2017-06-05T04:41:56.024Z,8
2017-06-05T04:42:56.738Z,8
2017-06-05T04:43:57.716Z,8
2017-06-05T04:44:58.436Z,8
2017-06-05T04:45:59.113Z,8
2017-06-05T04:46:59.790Z,12
2017-06-05T04:48:00.525Z,12
2017-06-05T04:49:01.200Z,12
2017-06-05T04:50:02.176Z,12
2017-06-05T04:51:02.842Z,12
2017-06-05T04:52:03.531Z,16
2017-06-05T04:53:04.408Z,12
2017-06-05T04:54:05.094Z,16
2017-06-05T04:55:05.774Z,16
2017-06-05T04:56:06.798Z,20
2017-06-05T04:57:07.495Z,20
2017-06-05T04:58:08.167Z,24
2017-06-05T04:59:08.890Z,24
2017-06-05T05:00:09.610Z,28
2017-06-05T05:01:10.298Z,28
2017-06-05T05:02:11.275Z,28
2017-06-05T05:03:12.021Z,28
2017-06-05T05:04:12.701Z,28
2017-06-05T05:05:13.347Z,28
2017-06-05T05:06:14.052Z,28
2017-06-05T05:07:14.730Z,28
2017-06-05T05:08:15.710Z,24
2017-06-05T05:09:16.691Z,24
2017-06-05T05:10:17.369Z,24
2017-06-05T05:11:18.046Z,28
2017-06-05T05:12:18.733Z,20
2017-06-05T05:13:19.456Z,32
2017-06-05T05:14:20.130Z,28
2017-06-05T05:15:21.098Z,32
2017-06-05T05:16:21.782Z,32
2017-06-05T05:17:22.462Z,24
2017-06-05T05:18:23.124Z,24
2017-06-05T05:19:23.812Z,28
2017-06-05T05:20:24.542Z,36
2017-06-05T05:21:25.563Z,40
2017-06-05T05:22:26.235Z,36
2017-06-05T05:23:26.913Z,28
2017-06-05T05:24:27.595Z,32
2017-06-05T05:25:28.321Z,36
2017-06-05T05:26:29.009Z,36
2017-06-05T05:27:29.987Z,32
2017-06-05T05:28:30.659Z,32
2017-06-05T05:29:31.342Z,32
2017-06-05T05:30:32.022Z,28
2017-06-05T05:31:32.694Z,32
2017-06-05T05:32:33.366Z,36
2017-06-05T05:33:34.340Z,32
2017-06-05T05:34:35.024Z,28
2017-06-05T05:35:35.789Z,24
2017-06-05T05:36:36.469Z,20
2017-06-05T05:37:37.188Z,20
2017-06-05T05:38:37.871Z,20
2017-06-05T05:39:38.547Z,20
2017-06-05T05:40:39.541Z,24
2017-06-05T05:41:40.198Z,24
2017-06-05T05:42:40.922Z,24
2017-06-05T05:43:41.598Z,24
2017-06-05T05:44:42.273Z,24
2017-06-05T05:45:42.955Z,24
2017-06-05T05:46:43.932Z,24
2017-06-05T05:47:44.659Z,24
2017-06-05T05:48:45.338Z,24
2017-06-05T05:49:46.009Z,24
2017-06-05T05:50:46.686Z,24
2017-06-05T05:51:47.380Z,24
2017-06-05T05:52:48.460Z,20
2017-06-05T05:53:49.130Z,24
2017-06-05T05:54:49.817Z,24
2017-06-05T05:55:50.484Z,28
2017-06-05T05:56:51.159Z,28
2017-06-05T05:57:51.888Z,28
2017-06-05T05:58:52.907Z,28
2017-06-05T05:59:53.589Z,24
2017-06-05T06:00:54.261Z,24
2017-06-05T06:01:54.938Z,24
2017-06-05T06:02:55.617Z,24
2017-06-05T06:03:56.453Z,20
2017-06-05T06:04:57.424Z,20
2017-06-05T06:05:58.106Z,20
2017-06-05T06:06:58.786Z,20
2017-06-05T06:07:59.465Z,20
2017-06-05T06:09:00.241Z,20
2017-06-05T06:10:00.919Z,24
2017-06-05T06:11:01.595Z,20
2017-06-05T06:12:02.612Z,20
2017-06-05T06:13:03.286Z,20
2017-06-05T06:14:04.059Z,20
2017-06-05T06:15:04.738Z,16
2017-06-05T06:16:05.414Z,20
2017-06-05T06:17:06.093Z,20
2017-06-05T06:18:07.073Z,20
2017-06-05T06:19:08.001Z,20
2017-06-05T06:20:08.679Z,20
2017-06-05T06:21:09.351Z,20
2017-06-05T06:22:10.029Z,20
2017-06-05T06:23:10.711Z,20
2017-06-05T06:24:11.937Z,24
2017-06-05T06:25:12.626Z,24
2017-06-05T06:26:13.311Z,20
2017-06-05T06:27:13.991Z,20
2017-06-05T06:28:14.942Z,20
2017-06-05T06:29:15.769Z,20
2017-06-05T06:30:16.753Z,20
2017-06-05T06:31:17.432Z,24
2017-06-05T06:32:18.109Z,20
2017-06-05T06:33:18.781Z,20
2017-06-05T06:34:19.507Z,24
2017-06-05T06:35:20.180Z,24
2017-06-05T06:36:21.209Z,24
2017-06-05T06:37:21.879Z,20
2017-06-05T06:38:22.702Z,24
2017-06-05T06:39:23.424Z,24
2017-06-05T06:40:24.103Z,20
2017-06-05T06:41:24.780Z,20
2017-06-05T06:42:25.783Z,20
2017-06-05T06:43:26.601Z,20
2017-06-05T06:44:27.266Z,20
2017-06-05T06:45:27.956Z,16
2017-06-05T06:46:28.626Z,16
2017-06-05T06:47:29.307Z,20
2017-06-05T06:48:30.723Z,20
2017-06-05T06:49:31.396Z,20
2017-06-05T06:50:32.072Z,20
2017-06-05T06:51:32.757Z,20
2017-06-05T06:52:33.472Z,20
2017-06-05T06:53:34.257Z,20
2017-06-05T06:54:34.938Z,16
2017-06-05T06:55:35.974Z,20
2017-06-05T06:56:36.644Z,20
2017-06-05T06:57:37.335Z,16
2017-06-05T06:58:38.025Z,20
2017-06-05T06:59:38.703Z,16
2017-06-05T07:00:39.660Z,20
2017-06-05T07:01:40.658Z,16
2017-06-05T07:02:41.338Z,16
2017-06-05T07:03:42.019Z,16
2017-06-05T07:04:42.695Z,16
2017-06-05T07:05:43.415Z,16
2017-06-05T07:06:44.100Z,16
2017-06-05T07:07:45.072Z,20
2017-06-05T07:08:45.737Z,20
2017-06-05T07:09:46.431Z,20
2017-06-05T07:10:47.215Z,20
2017-06-05T07:11:47.885Z,20
2017-06-05T07:12:48.567Z,20
2017-06-05T07:13:49.548Z,20
2017-06-05T07:14:50.224Z,20
2017-06-05T07:15:50.954Z,16
2017-06-05T07:16:51.636Z,20
2017-06-05T07:17:52.354Z,16
2017-06-05T07:18:53.080Z,20
2017-06-05T07:19:54.062Z,20
2017-06-05T07:20:54.780Z,16
2017-06-05T07:21:55.464Z,16
2017-06-05T07:22:56.185Z,20
2017-06-05T07:23:56.901Z,20
2017-06-05T07:24:57.588Z,20
2017-06-05T07:25:58.277Z,16
2017-06-05T07:26:59.323Z,16
2017-06-05T07:28:00.039Z,16
2017-06-05T07:29:00.713Z,20
2017-06-05T07:30:01.381Z,20
2017-06-05T07:31:02.064Z,20
2017-06-05T07:32:02.754Z,20
2017-06-05T07:33:03.733Z,20
2017-06-05T07:34:04.412Z,20
2017-06-05T07:35:05.093Z,20
2017-06-05T07:36:05.852Z,20
2017-06-05T07:37:06.536Z,20
2017-06-05T07:38:07.389Z,20
2017-06-05T07:39:08.415Z,20
2017-06-05T07:40:09.126Z,20
2017-06-05T07:41:09.858Z,20
2017-06-05T07:42:10.523Z,20
2017-06-05T07:43:11.403Z,24
2017-06-05T07:44:12.140Z,24
2017-06-05T07:45:13.219Z,24
2017-06-05T07:46:13.910Z,20
2017-06-05T07:47:14.678Z,20
2017-06-05T07:48:15.438Z,24
2017-06-05T07:49:16.108Z,20
2017-06-05T07:50:17.133Z,24
2017-06-05T07:51:18.197Z,20
2017-06-05T07:52:18.886Z,44
2017-06-05T07:53:19.641Z,24
2017-06-05T07:54:20.322Z,20
2017-06-05T07:55:21.213Z,20
2017-06-05T07:56:21.888Z,20
2017-06-05T07:57:22.625Z,20
2017-06-05T07:58:23.611Z,20
2017-06-05T07:59:24.291Z,24
2017-06-05T08:00:25.180Z,20
2017-06-05T08:01:25.877Z,20
2017-06-05T08:02:26.657Z,16
2017-06-05T08:03:27.346Z,20
2017-06-05T08:04:28.385Z,20
2017-06-05T08:05:29.038Z,16
2017-06-05T08:06:29.715Z,16
2017-06-05T08:07:30.450Z,20
2017-06-05T08:08:31.120Z,16
2017-06-05T08:09:31.802Z,20
2017-06-05T08:10:32.484Z,20
2017-06-05T08:11:33.544Z,20
2017-06-05T08:12:34.270Z,20
2017-06-05T08:13:34.941Z,20
2017-06-05T08:14:35.619Z,20
2017-06-05T08:15:36.341Z,20
2017-06-05T08:16:37.019Z,20
2017-06-05T08:17:38.046Z,24
2017-06-05T08:18:38.739Z,24
2017-06-05T08:19:39.448Z,20
2017-06-05T08:20:40.138Z,20
2017-06-05T08:21:40.814Z,20
2017-06-05T08:22:41.546Z,20
2017-06-05T08:23:42.243Z,20
2017-06-05T08:24:42.919Z,24
2017-06-05T08:25:43.663Z,20
2017-06-05T08:26:44.346Z,20
2017-06-05T08:27:45.177Z,20
2017-06-05T08:28:46.160Z,20
2017-06-05T08:29:46.838Z,20
2017-06-05T08:30:47.522Z,20
2017-06-05T08:31:48.199Z,20
2017-06-05T08:32:48.955Z,20
2017-06-05T08:33:49.683Z,20
2017-06-05T08:34:50.659Z,20
2017-06-05T08:35:51.428Z,20
2017-06-05T08:36:52.097Z,20
2017-06-05T08:37:52.923Z,16
2017-06-05T08:38:53.599Z,48
2017-06-05T08:39:54.270Z,44
2017-06-05T08:40:55.311Z,40
2017-06-05T08:41:56.035Z,16
2017-06-05T10:18:53.400Z,2264
2017-06-05T10:19:54.170Z,2268
2017-06-05T10:20:54.923Z,2336
2017-06-05T10:21:55.692Z,2356
2017-06-05T10:22:56.478Z,2364
2017-06-05T10:23:57.316Z,2368
2017-06-05T10:24:58.077Z,2372
2017-06-05T10:25:59.140Z,2392
2017-06-05T10:26:59.837Z,2408
2017-06-05T10:28:00.589Z,2416
2017-06-05T10:29:01.458Z,2436
2017-06-05T10:30:02.278Z,2440
2017-06-05T10:31:03.410Z,2432
2017-06-05T10:32:04.240Z,2428
2017-06-05T10:33:05.112Z,2420
2017-06-05T10:34:06.253Z,2420
2017-06-05T10:35:07.046Z,2416
2017-06-05T10:36:07.876Z,2416
2017-06-05T10:37:09.037Z,2424
2017-06-05T10:38:09.851Z,2432
2017-06-05T10:39:10.737Z,2444
2017-06-05T10:40:11.542Z,2464
2017-06-05T10:41:12.502Z,2480
2017-06-05T10:42:13.268Z,2492
2017-06-05T10:43:14.317Z,2500
2017-06-05T10:44:15.175Z,2528
2017-06-05T10:45:15.968Z,2544
2017-06-05T10:46:16.698Z,2544
2017-06-05T10:47:17.472Z,2556
2017-06-05T10:48:18.302Z,2572
2017-06-05T10:49:19.475Z,2608
2017-06-05T10:50:20.560Z,2640
2017-06-05T10:51:21.399Z,2672
2017-06-05T10:52:22.162Z,2700
2017-06-05T10:53:22.933Z,2712
2017-06-05T10:54:23.739Z,2712
2017-06-05T10:55:25.028Z,2708
2017-06-05T10:56:26.023Z,2724
2017-06-05T10:57:26.801Z,2752
2017-06-05T10:58:27.559Z,2780
2017-06-05T10:59:28.341Z,2792
2017-06-05T11:00:29.159Z,2812
2017-06-05T11:01:30.067Z,2836
2017-06-05T11:02:35.341Z,2864
2017-06-05T11:03:36.329Z,2896
2017-06-05T11:04:37.241Z,2928
2017-06-05T11:05:38.034Z,2948
2017-06-05T11:06:39.194Z,2968
2017-06-05T11:07:39.985Z,2996
2017-06-05T11:08:41.063Z,3012
2017-06-05T11:09:41.831Z,3024
2017-06-05T11:10:42.640Z,3036
2017-06-05T11:11:43.402Z,3048
2017-06-05T11:12:44.157Z,3048
2017-06-05T11:13:44.968Z,3028
2017-06-05T11:16:01.310Z,3024
2017-06-05T11:17:02.110Z,3056
2017-06-05T11:18:03.031Z,3088
2017-06-05T11:19:03.851Z,3112
2017-06-05T11:20:04.717Z,3132
2017-06-05T11:21:05.943Z,3160
2017-06-05T11:22:06.734Z,3208
2017-06-05T11:23:07.617Z,3280
2017-06-05T11:24:08.444Z,3344
2017-06-05T11:25:09.378Z,3404
2017-06-05T11:26:10.596Z,3428
2017-06-05T11:27:11.405Z,3432
2017-06-05T11:28:12.200Z,3444
2017-06-05T11:29:12.976Z,3464
2017-06-05T11:30:13.759Z,3480
2017-06-05T11:31:14.558Z,3468
2017-06-05T11:32:15.643Z,3516
2017-06-05T11:33:16.524Z,3560
2017-06-05T11:34:17.317Z,3600
2017-06-05T11:35:18.148Z,3628
2017-06-05T11:36:19.039Z,3688
2017-06-05T11:37:20.304Z,3728
2017-06-05T11:38:21.214Z,3748
2017-06-05T11:39:22.107Z,3808
2017-06-05T11:40:22.980Z,3852
2017-06-05T11:41:23.889Z,3928
2017-06-05T11:42:24.748Z,3956
2017-06-05T11:43:26.225Z,3924
2017-06-05T11:44:27.193Z,3992
2017-06-05T11:45:28.044Z,4216
2017-06-05T11:46:28.870Z,4464
2017-06-05T11:47:29.652Z,4784
2017-06-05T11:48:30.990Z,4716
2017-06-05T11:49:31.857Z,4628
2017-06-05T11:50:32.768Z,4656
2017-06-05T11:51:33.691Z,4608
2017-06-05T11:53:50.559Z,4404
2017-06-05T11:54:51.510Z,4436
2017-06-05T11:55:52.329Z,4492
2017-06-05T11:56:53.150Z,4500
2017-06-05T11:57:54.003Z,4648
2017-06-05T11:58:54.906Z,4816
2017-06-05T11:59:56.264Z,4948
2017-06-05T12:00:57.223Z,5192
2017-06-05T12:01:58.074Z,5396
2017-06-05T12:02:59.022Z,5492
2017-06-05T12:04:00.116Z,5704
2017-06-05T12:05:01.377Z,5592
2017-06-05T12:06:02.222Z,5412
2017-06-05T12:08:18.631Z,5736
2017-06-05T12:09:19.654Z,6108
2017-06-05T12:10:20.872Z,6580
2017-06-05T12:11:21.852Z,6736
2017-06-05T12:12:22.666Z,6972
2017-06-05T12:13:23.472Z,7348
2017-06-05T12:14:24.438Z,7700
2017-06-05T12:15:25.612Z,8024
2017-06-05T12:16:26.518Z,8484
2017-06-05T12:17:27.383Z,9024
2017-06-05T12:18:28.413Z,9336
2017-06-05T12:19:29.678Z,9640
2017-06-05T12:20:30.787Z,9564
2017-06-05T12:21:32.041Z,9712
2017-06-05T12:22:32.920Z,9880
2017-06-05T12:24:49.267Z,9736
2017-06-05T12:25:50.066Z,9912
2017-06-05T12:26:51.211Z,10108
2017-06-05T12:27:52.210Z,10268
2017-06-05T12:28:53.035Z,9912
2017-06-05T12:29:53.815Z,9584
2017-06-05T12:30:54.644Z,9544
2017-06-05T12:31:55.616Z,10048
2017-06-05T12:32:57.009Z,10416
2017-06-05T12:33:57.937Z,10400
2017-06-05T12:34:58.937Z,10476
2017-06-05T12:35:59.782Z,10648
2017-06-05T12:37:00.744Z,10784
2017-06-05T12:38:01.672Z,11004
2017-06-05T12:39:02.930Z,11164
2017-06-05T12:40:03.822Z,11020
2017-06-05T12:41:04.661Z,10656
2017-06-05T12:42:05.482Z,11148
2017-06-05T12:43:06.376Z,12388
2017-06-05T12:44:07.822Z,12884
2017-06-05T12:45:08.647Z,11932
2017-06-05T12:46:09.567Z,10816
2017-06-05T12:47:10.418Z,10000
2017-06-05T12:48:11.430Z,8756
2017-06-05T12:49:12.348Z,8056
2017-06-05T12:50:13.521Z,7460
2017-06-05T12:51:14.338Z,7032
2017-06-05T12:52:15.161Z,6768
2017-06-05T12:53:16.185Z,6744
2017-06-05T12:54:17.114Z,6868
2017-06-05T12:55:18.265Z,6952
2017-06-05T12:56:19.116Z,6952
2017-06-05T12:57:19.996Z,6996
2017-06-05T12:58:20.891Z,6960
2017-06-05T12:59:21.697Z,6884
2017-06-05T13:00:22.828Z,6852
2017-06-05T13:01:24.130Z,6880
2017-06-05T13:02:25.013Z,6888
2017-06-05T13:03:25.948Z,6988
2017-06-05T13:04:26.769Z,7160
2017-06-05T13:05:27.696Z,7420
2017-06-05T13:06:29.040Z,7696
2017-06-05T13:07:29.872Z,7992
2017-06-05T13:08:30.774Z,8504
2017-06-05T13:09:31.663Z,9008
2017-06-05T13:10:32.549Z,9500
2017-06-05T13:11:33.416Z,9564
2017-06-05T13:12:34.634Z,10328
2017-06-05T13:13:35.971Z,10744
2017-06-05T13:14:36.775Z,10796
2017-06-05T13:15:37.672Z,10600
2017-06-05T13:16:38.491Z,10264
2017-06-05T13:17:39.792Z,9460
2017-06-05T13:18:40.586Z,9324
2017-06-05T13:19:41.457Z,9288
2017-06-05T13:20:42.463Z,9632
2017-06-05T13:21:43.340Z,10072
2017-06-05T13:22:44.234Z,10336
2017-06-05T13:23:45.512Z,10944
2017-06-05T13:24:46.441Z,9940
2017-06-05T13:25:47.333Z,11424
2017-06-05T13:26:48.391Z,10420
2017-06-05T13:27:49.235Z,11632
2017-06-05T13:28:50.362Z,11560
2017-06-05T13:29:51.177Z,11512
2017-06-05T13:30:52.268Z,11732
2017-06-05T13:31:53.141Z,12152
2017-06-05T13:32:53.977Z,12384
2017-06-05T13:33:54.858Z,11908
2017-06-05T13:34:56.054Z,11240
2017-06-05T13:35:56.879Z,10724
2017-06-05T13:36:57.940Z,10404
2017-06-05T13:37:58.811Z,10412
2017-06-05T13:38:59.632Z,10556
2017-06-05T13:40:00.443Z,14344
2017-06-05T13:41:01.635Z,22368
2017-06-05T13:42:02.539Z,18492
2017-06-05T13:43:03.362Z,11028
2017-06-05T13:44:04.285Z,10740
2017-06-05T13:45:05.108Z,10788
2017-06-05T13:46:05.990Z,10768
2017-06-05T13:47:07.199Z,11000
2017-06-05T13:48:08.032Z,11216
2017-06-05T13:49:08.818Z,11732
2017-06-05T13:50:09.784Z,12000
2017-06-05T13:51:10.592Z,12472
2017-06-05T13:52:11.732Z,12788
2017-06-05T13:53:12.595Z,13244
2017-06-05T13:54:13.377Z,13676
2017-06-05T13:55:14.191Z,13768
2017-06-05T13:56:15.079Z,13736
2017-06-05T13:57:15.914Z,13520
2017-06-05T13:58:17.157Z,12956
2017-06-05T13:59:18.091Z,12332
2017-06-05T14:00:19.059Z,11920
2017-06-05T14:01:21.106Z,11720
2017-06-05T14:02:22.031Z,11984
2017-06-05T14:03:22.856Z,12468
2017-06-05T14:04:24.203Z,9168
2017-06-05T14:05:25.132Z,9392
2017-06-05T14:06:26.001Z,11236
2017-06-05T14:07:26.887Z,13648
2017-06-05T14:08:27.730Z,12744
2017-06-05T14:09:28.585Z,13280
2017-06-05T14:10:29.765Z,17492
2017-06-05T14:11:30.565Z,50688
2017-06-05T14:12:31.560Z,75200
2017-06-05T14:13:32.432Z,79232
2017-06-05T14:14:33.348Z,79616
2017-06-05T14:15:35.669Z,80192
2017-06-05T14:16:36.386Z,83936
2017-06-05T14:17:37.192Z,13804
2017-06-05T14:18:38.090Z,79776
2017-06-05T14:19:39.001Z,80960
2017-06-05T14:20:40.184Z,81600
2017-06-05T14:21:41.048Z,79424
2017-06-05T14:22:42.196Z,13688
2017-06-05T14:23:42.992Z,81920
2017-06-05T14:24:43.874Z,83104
2017-06-05T14:25:44.823Z,82880
2017-06-05T14:26:45.711Z,84352
2017-06-05T14:27:46.932Z,85984
2017-06-05T14:28:48.096Z,86112
2017-06-05T14:29:49.063Z,85152
2017-06-05T14:30:49.996Z,85472
2017-06-05T14:31:50.880Z,87232
2017-06-05T14:32:51.700Z,88608
2017-06-05T14:33:52.572Z,89696
2017-06-05T14:34:53.750Z,89792
2017-06-05T14:35:54.691Z,90144
2017-06-05T14:36:55.481Z,90816
2017-06-05T14:37:56.371Z,91872
2017-06-05T14:38:57.200Z,87520
2017-06-05T14:39:58.454Z,92000
2017-06-05T14:40:59.481Z,58784
2017-06-05T14:42:00.322Z,12600
2017-06-05T14:43:01.179Z,11260
2017-06-05T14:44:02.042Z,11460
2017-06-05T14:45:02.868Z,11712
2017-06-05T14:46:03.936Z,12172
2017-06-05T14:47:05.204Z,15068
2017-06-05T14:48:06.060Z,22208
2017-06-05T14:49:06.996Z,88384
2017-06-05T14:50:07.790Z,85024
2017-06-05T14:51:08.736Z,92992
2017-06-05T14:52:09.646Z,87456
2017-06-05T14:53:10.801Z,13124
2017-06-05T14:54:11.643Z,11608
2017-06-05T14:55:12.445Z,11224
2017-06-05T14:56:13.340Z,11692
2017-06-05T14:57:14.212Z,13060
2017-06-05T14:58:15.020Z,22112
2017-06-05T14:59:16.181Z,50944
2017-06-05T15:00:17.078Z,88768
2017-06-05T15:01:17.888Z,87872
2017-06-05T15:02:18.830Z,90016
2017-06-05T15:03:19.719Z,88320
2017-06-05T15:04:20.590Z,88736
2017-06-05T15:05:22.529Z,89888
2017-06-05T15:06:23.328Z,88384
2017-06-05T15:07:24.390Z,88928
2017-06-05T15:08:25.417Z,89056
2017-06-05T15:09:26.305Z,87296
2017-06-05T15:10:27.199Z,87712
2017-06-05T15:11:28.117Z,88448
2017-06-05T15:12:29.495Z,89856
2017-06-05T15:13:30.312Z,89760
2017-06-05T15:14:31.211Z,90432
2017-06-05T15:15:31.987Z,91072
2017-06-05T15:16:32.776Z,90624
2017-06-05T15:17:33.560Z,90944
2017-06-05T15:18:35.169Z,89824
2017-06-05T15:19:36.160Z,91424
2017-06-05T15:20:37.081Z,91488
2017-06-05T15:21:37.972Z,89888
2017-06-05T15:22:38.989Z,90688
2017-06-05T15:23:40.196Z,63424
2017-06-05T15:24:41.089Z,91936
2017-06-05T15:25:41.937Z,89760
2017-06-05T15:26:42.773Z,89120
2017-06-05T15:27:43.591Z,91264
2017-06-05T15:28:44.962Z,90976
2017-06-05T15:29:46.227Z,88224
2017-06-05T15:30:47.606Z,86912
2017-06-05T15:31:48.441Z,89120
2017-06-05T15:32:50.276Z,87264
2017-06-05T15:33:51.133Z,88640
2017-06-05T15:34:52.531Z,88928
2017-06-05T15:35:53.992Z,88384
2017-06-05T15:36:55.670Z,87904
2017-06-05T15:37:56.480Z,87872
2017-06-05T15:38:57.404Z,86720
2017-06-05T15:39:58.404Z,85472
2017-06-05T15:40:59.212Z,77344
2017-06-05T15:42:00.180Z,74048
2017-06-05T15:43:01.335Z,73664
2017-06-05T15:44:02.155Z,75776
2017-06-05T15:45:02.990Z,85888
2017-06-05T15:46:03.868Z,75584
2017-06-05T15:47:04.680Z,75424
2017-06-05T15:48:05.473Z,81408
2017-06-05T15:49:06.698Z,52832